Terminal Aerodrome Forecast
Issued by NWS San Angelo, TX

Home | Current Version | Previous Version | Text Only | Print | Product List | Glossary On
Versions: 1 2 3 4 5 6 7 8 9 10 11 12 13 14 15 16 17 18 19
760
FTUS44 KSJT 252336
TAFABI
TAF
KABI 252336Z 2600/2624 14012KT P6SM VCSH SCT035 OVC050
     FM260600 14009KT P6SM VCSH OVC040
     FM261100 14008KT P6SM -SHRA VCTS OVC025CB
     FM261700 15010KT 5SM SHRA VCTS OVC035CB=

USA.gov is the U.S. government's official web portal to all federal, state and local government web resources and services.